Time;durP1;ratioP1;P1;durP2;ratioP2;P2;SDS_P1;SDS_P2;PMS_P1;PMS_P2;Temp;Humidity;BMP_temperature;BMP_pressure;BME280_temperature;BME280_humidity;BME280_pressure;Samples;Min_cycle;Max_cycle;Signal;HPM_P1;HPM_P2
2023/01/12 00:02:11;;;;;;;;;;;7.50;99.90;;;;;;5073643;28;19924;-65
2023/01/12 00:04:39;;;;;;;;;;;7.50;99.90;;;;;;5067393;28;20401;-65
2023/01/12 00:07:07;;;;;;;;;;;7.50;99.90;;;;;;5071359;28;19925;-66
2023/01/12 00:09:37;;;;;;;;;;;7.50;99.90;;;;;;5072300;28;19924;-66
2023/01/12 00:12:05;;;;;;;;;;;7.60;99.90;;;;;;5078756;28;19924;-66
2023/01/12 00:14:33;;;;;;;;;;;7.60;99.90;;;;;;5070068;28;19978;-66
2023/01/12 00:17:01;;;;;;;;;;;7.60;99.90;;;;;;5070333;28;20427;-65
2023/01/12 00:19:31;;;;;;;;;;;7.60;99.90;;;;;;5079156;22;19924;-61
2023/01/12 00:22:07;;;;;;;;;;;7.60;99.90;;;;;;5066924;28;19931;-62
2023/01/12 00:24:37;;;;;;;;;;;7.60;99.90;;;;;;5069878;28;19928;-62
2023/01/12 00:27:06;;;;;;;;;;;7.60;99.90;;;;;;5069209;28;20020;-62
2023/01/12 00:29:34;;;;;;;;;;;7.50;99.90;;;;;;5068872;28;20035;-60
2023/01/12 00:32:01;;;;;;;;;;;7.60;99.90;;;;;;5068246;28;20014;-61
2023/01/12 00:34:29;;;;;;;;;;;7.60;99.90;;;;;;5068941;28;20595;-61
2023/01/12 00:36:59;;;;;;;;;;;7.50;99.90;;;;;;5067497;28;20011;-61
2023/01/12 00:39:27;;;;;;;;;;;7.50;99.90;;;;;;5069634;28;19929;-61
2023/01/12 00:47:26;;;;;;;;;;;7.60;99.90;;;;;;5068122;28;20390;-61
2023/01/12 00:49:54;;;;;;;;;;;7.60;99.90;;;;;;5067535;28;20308;-62
2023/01/12 00:52:22;;;;;;;;;;;7.60;99.90;;;;;;5067570;28;20243;-61
2023/01/12 00:54:58;;;;;;;;;;;7.60;99.90;;;;;;5068894;28;20286;-62
2023/01/12 00:57:28;;;;;;;;;;;7.60;99.90;;;;;;5068450;28;19924;-61
2023/01/12 00:59:57;;;;;;;;;;;7.60;99.90;;;;;;5067977;28;19928;-61
2023/01/12 01:02:25;;;;;;;;;;;7.60;99.90;;;;;;5070045;28;19931;-61
2023/01/12 01:04:53;;;;;;;;;;;7.70;99.90;;;;;;5064777;28;19931;-62
2023/01/12 01:07:21;;;;;;;;;;;7.70;99.90;;;;;;5066447;28;19979;-61
2023/01/12 01:09:49;;;;;;;;;;;7.70;99.90;;;;;;5065115;28;19935;-61
2023/01/12 01:12:17;;;;;;;;;;;7.70;99.90;;;;;;5068013;28;20385;-61
2023/01/12 01:14:46;;;;;;;;;;;7.80;99.90;;;;;;5068593;28;19924;-63
2023/01/12 01:17:14;;;;;;;;;;;7.80;99.90;;;;;;5068185;28;20002;-61
2023/01/12 01:19:42;;;;;;;;;;;7.80;99.90;;;;;;5079082;28;21767;-61
2023/01/12 01:22:11;;;;;;;;;;;7.80;99.90;;;;;;5087566;28;19982;-61
2023/01/12 01:24:38;;;;;;;;;;;7.80;99.90;;;;;;5087046;28;19924;-61
2023/01/12 01:27:06;;;;;;;;;;;7.90;99.90;;;;;;5090024;28;20016;-61
2023/01/12 01:29:34;;;;;;;;;;;7.90;99.90;;;;;;5087837;28;20019;-60
2023/01/12 01:32:03;;;;;;;;;;;7.90;99.90;;;;;;5088381;28;19934;-61
2023/01/12 01:34:31;;;;;;;;;;;7.90;99.90;;;;;;5085723;28;19956;-61
2023/01/12 01:36:59;;;;;;;;;;;8.00;99.90;;;;;;5088410;28;19924;-62
2023/01/12 01:39:26;;;;;;;;;;;8.00;99.90;;;;;;5089210;28;19924;-61
2023/01/12 01:41:54;;;;;;;;;;;8.10;99.90;;;;;;5090524;28;19928;-61
2023/01/12 01:44:40;;;;;;;;;;;8.10;99.90;;;;;;5089769;28;20023;-61
2023/01/12 01:47:14;;;;;;;;;;;8.10;99.90;;;;;;5090103;28;20591;-61
2023/01/12 01:49:43;;;;;;;;;;;8.20;99.90;;;;;;5086276;28;19935;-61
2023/01/12 01:52:11;;;;;;;;;;;8.20;99.90;;;;;;5086563;28;19924;-61
2023/01/12 01:54:40;;;;;;;;;;;8.20;99.90;;;;;;5086396;28;19924;-61
2023/01/12 01:57:09;;;;;;;;;;;8.20;99.90;;;;;;5085240;28;19924;-62
2023/01/12 01:59:38;;;;;;;;;;;8.20;99.90;;;;;;5087830;28;20015;-61
2023/01/12 02:02:06;;;;;;;;;;;8.20;99.90;;;;;;5090454;28;19928;-61
2023/01/12 02:04:35;;;;;;;;;;;8.20;99.90;;;;;;5089056;28;19986;-61
2023/01/12 02:07:03;;;;;;;;;;;8.20;99.90;;;;;;5090818;28;20297;-61
2023/01/12 02:09:31;;;;;;;;;;;8.20;99.90;;;;;;5089049;28;20413;-60
2023/01/12 02:17:38;;;;;;;;;;;8.20;99.90;;;;;;5091167;28;20014;-62
2023/01/12 02:20:24;;;;;;;;;;;8.30;99.90;;;;;;5089704;28;19931;-61
2023/01/12 02:23:15;;;;;;;;;;;8.30;99.90;;;;;;5091396;28;20031;-62
2023/01/12 02:26:02;;;;;;;;;;;8.30;99.90;;;;;;5078762;28;20011;-62
2023/01/12 02:28:40;;;;;;;;;;;8.30;99.90;;;;;;5095781;28;19924;-62
2023/01/12 02:31:16;;;;;;;;;;;8.40;99.90;;;;;;5087514;28;20018;-62
2023/01/12 02:33:48;;;;;;;;;;;8.40;99.90;;;;;;5089033;28;19924;-61
2023/01/12 02:36:19;;;;;;;;;;;8.40;99.90;;;;;;5091623;28;19930;-62
2023/01/12 02:38:47;;;;;;;;;;;8.40;99.90;;;;;;5091784;28;19924;-62
2023/01/12 02:42:39;;;;;;;;;;;8.40;99.90;;;;;;5091185;28;20026;-61
2023/01/12 02:44:15;;;;;;;;;;;8.40;99.90;;;;;;5089209;28;20042;-62
2023/01/12 02:46:45;;;;;;;;;;;8.40;99.90;;;;;;5091544;28;19930;-62
2023/01/12 02:49:16;;;;;;;;;;;8.40;99.90;;;;;;5093074;28;19931;-62
2023/01/12 02:51:46;;;;;;;;;;;8.40;99.90;;;;;;5092143;28;19924;-61
2023/01/12 02:54:15;;;;;;;;;;;8.40;99.90;;;;;;5090363;28;19924;-61
2023/01/12 02:56:45;;;;;;;;;;;8.50;99.90;;;;;;5093644;28;20014;-61
2023/01/12 02:59:15;;;;;;;;;;;8.50;99.90;;;;;;5089679;28;19924;-61
2023/01/12 03:01:47;;;;;;;;;;;8.60;99.90;;;;;;5091036;28;19930;-62
2023/01/12 03:04:16;;;;;;;;;;;8.50;99.90;;;;;;5091825;28;19924;-62
2023/01/12 03:06:45;;;;;;;;;;;8.50;99.90;;;;;;5092921;28;19923;-61
2023/01/12 03:09:14;;;;;;;;;;;8.50;99.90;;;;;;5090035;28;19934;-62
2023/01/12 03:11:42;;;;;;;;;;;8.50;99.90;;;;;;5088392;28;19931;-61
2023/01/12 03:14:11;;;;;;;;;;;8.50;99.90;;;;;;5090830;28;19924;-61
2023/01/12 03:16:40;;;;;;;;;;;8.50;99.90;;;;;;5091484;28;19985;-61
2023/01/12 03:19:11;;;;;;;;;;;8.50;99.90;;;;;;5092205;28;19981;-61
2023/01/12 03:21:39;;;;;;;;;;;8.50;99.90;;;;;;5085359;28;19931;-61
2023/01/12 03:24:09;;;;;;;;;;;8.50;99.90;;;;;;5087288;28;19924;-61
2023/01/12 03:26:38;;;;;;;;;;;8.60;99.90;;;;;;5093940;28;19930;-61
2023/01/12 03:29:10;;;;;;;;;;;8.50;99.90;;;;;;5084975;28;19932;-61
2023/01/12 03:31:38;;;;;;;;;;;8.50;99.90;;;;;;5085541;28;19924;-62
2023/01/12 03:34:06;;;;;;;;;;;8.60;99.90;;;;;;5089914;28;20011;-61
2023/01/12 03:36:41;;;;;;;;;;;8.60;99.90;;;;;;5090154;28;20024;-61
2023/01/12 03:39:13;;;;;;;;;;;8.60;99.90;;;;;;5088081;28;19931;-61
2023/01/12 03:41:48;;;;;;;;;;;8.60;99.90;;;;;;5087731;28;20459;-61
2023/01/12 03:44:19;;;;;;;;;;;8.60;99.90;;;;;;5090810;28;20389;-61
2023/01/12 03:46:53;;;;;;;;;;;8.60;99.90;;;;;;5090383;28;20018;-61
2023/01/12 03:49:24;;;;;;;;;;;8.60;99.90;;;;;;5089292;28;20452;-62
2023/01/12 03:51:55;;;;;;;;;;;8.60;99.90;;;;;;5087316;28;19939;-62
2023/01/12 03:54:24;;;;;;;;;;;8.70;99.90;;;;;;5089357;28;19924;-62
2023/01/12 03:56:53;;;;;;;;;;;8.70;99.90;;;;;;5091371;28;20059;-61
2023/01/12 03:59:21;;;;;;;;;;;8.70;99.90;;;;;;5090422;28;19981;-62
2023/01/12 04:01:50;;;;;;;;;;;8.70;99.90;;;;;;5087525;28;19930;-61
2023/01/12 04:04:19;;;;;;;;;;;8.70;99.90;;;;;;5087677;28;19936;-62
2023/01/12 04:06:46;;;;;;;;;;;8.70;99.90;;;;;;5089590;28;19924;-62
2023/01/12 04:09:15;;;;;;;;;;;8.70;99.90;;;;;;5090167;28;19930;-61
2023/01/12 04:14:28;;;;;;;;;;;8.70;99.90;;;;;;5089338;28;19924;-61
2023/01/12 04:16:56;;;;;;;;;;;8.70;99.90;;;;;;5091585;28;20015;-62
2023/01/12 04:19:24;;;;;;;;;;;8.70;99.90;;;;;;5089941;28;19924;-61
2023/01/12 04:24:38;;;;;;;;;;;8.70;99.90;;;;;;5089917;28;20307;-61
2023/01/12 04:27:06;;;;;;;;;;;8.70;99.90;;;;;;5088479;28;20363;-61
2023/01/12 04:29:34;;;;;;;;;;;8.70;99.90;;;;;;5088106;28;19932;-61
2023/01/12 04:32:01;;;;;;;;;;;8.70;99.90;;;;;;5088386;28;19924;-62
2023/01/12 04:34:29;;;;;;;;;;;8.70;99.90;;;;;;5089974;28;20007;-62
2023/01/12 04:36:57;;;;;;;;;;;8.70;99.90;;;;;;5087814;28;19971;-61
2023/01/12 04:39:24;;;;;;;;;;;8.70;99.90;;;;;;5088882;28;19932;-62
2023/01/12 04:41:53;;;;;;;;;;;8.70;99.90;;;;;;5088797;28;20324;-61
2023/01/12 04:44:21;;;;;;;;;;;8.70;99.90;;;;;;5090310;28;20323;-62
2023/01/12 04:46:49;;;;;;;;;;;8.70;99.90;;;;;;5089298;28;19935;-61
2023/01/12 04:49:17;;;;;;;;;;;8.70;99.90;;;;;;5087946;28;20308;-62
2023/01/12 04:51:45;;;;;;;;;;;8.70;99.90;;;;;;5088784;28;20410;-62
2023/01/12 04:54:12;;;;;;;;;;;8.70;99.90;;;;;;5088949;28;20133;-61
2023/01/12 04:56:40;;;;;;;;;;;8.70;99.90;;;;;;5089538;28;19935;-62
2023/01/12 04:59:09;;;;;;;;;;;8.70;99.90;;;;;;5089609;28;19927;-61
2023/01/12 05:01:37;;;;;;;;;;;8.70;99.90;;;;;;5087297;28;19928;-61
2023/01/12 05:04:05;;;;;;;;;;;8.70;99.90;;;;;;5088329;28;19924;-62
2023/01/12 05:06:34;;;;;;;;;;;8.70;99.90;;;;;;5086245;28;20035;-61
2023/01/12 05:11:47;;;;;;;;;;;8.70;99.90;;;;;;5087309;28;19932;-61
2023/01/12 05:14:16;;;;;;;;;;;8.70;99.90;;;;;;5090738;28;19930;-61
2023/01/12 05:16:44;;;;;;;;;;;8.70;99.90;;;;;;5087923;28;19930;-61
2023/01/12 05:19:11;;;;;;;;;;;8.70;99.90;;;;;;5086746;28;20434;-61
2023/01/12 05:21:39;;;;;;;;;;;8.70;99.90;;;;;;5084631;28;19924;-62
2023/01/12 05:24:08;;;;;;;;;;;8.70;99.90;;;;;;5089770;28;20023;-61
2023/01/12 05:26:36;;;;;;;;;;;8.60;99.90;;;;;;5090295;28;19946;-61
2023/01/12 05:29:03;;;;;;;;;;;8.60;99.90;;;;;;5083118;28;19940;-61
2023/01/12 05:31:33;;;;;;;;;;;8.60;99.90;;;;;;5086852;28;19967;-62
2023/01/12 05:34:01;;;;;;;;;;;8.60;99.90;;;;;;5082172;28;19924;-62
2023/01/12 05:36:28;;;;;;;;;;;8.60;99.90;;;;;;5073467;28;20378;-61
2023/01/12 05:38:56;;;;;;;;;;;8.60;99.90;;;;;;5084004;28;19933;-62
2023/01/12 05:41:24;;;;;;;;;;;8.60;99.90;;;;;;5070286;28;20070;-64
2023/01/12 05:43:50;;;;;;;;;;;8.60;99.90;;;;;;5084604;28;20415;-63
2023/01/12 05:46:20;;;;;;;;;;;8.60;99.90;;;;;;5089983;28;19924;-63
2023/01/12 05:48:49;;;;;;;;;;;8.60;99.90;;;;;;5088652;28;19924;-63
2023/01/12 05:51:17;;;;;;;;;;;8.60;99.90;;;;;;5084689;28;19924;-63
2023/01/12 05:53:45;;;;;;;;;;;8.60;99.90;;;;;;5086150;28;19946;-63
2023/01/12 05:56:16;;;;;;;;;;;8.60;99.90;;;;;;5088691;28;20304;-63
2023/01/12 05:58:48;;;;;;;;;;;8.60;99.90;;;;;;5085750;28;20026;-63
2023/01/12 06:01:15;;;;;;;;;;;8.60;99.90;;;;;;5085656;28;19934;-63
2023/01/12 06:03:43;;;;;;;;;;;8.70;99.90;;;;;;5086205;28;20331;-62
2023/01/12 06:06:12;;;;;;;;;;;8.70;99.90;;;;;;5086646;28;19942;-63
2023/01/12 06:08:40;;;;;;;;;;;8.70;99.90;;;;;;5087825;28;19928;-63
2023/01/12 06:13:55;;;;;;;;;;;8.70;99.90;;;;;;5090477;28;19926;-63
2023/01/12 06:13:57;;;;;;;;;;;8.70;99.90;;;;;;5087738;28;19928;-62
2023/01/12 06:16:25;;;;;;;;;;;8.70;99.90;;;;;;5089837;28;19934;-63
2023/01/12 06:21:45;;;;;;;;;;;8.70;99.90;;;;;;5046956;28;19979;-66
2023/01/12 06:24:12;;;;;;;;;;;8.70;99.90;;;;;;5051112;28;19924;-66
2023/01/12 06:26:43;;;;;;;;;;;8.70;99.90;;;;;;5050363;28;19951;-66
2023/01/12 06:29:12;;;;;;;;;;;8.70;99.90;;;;;;5053925;28;19925;-66
2023/01/12 06:31:40;;;;;;;;;;;8.70;99.90;;;;;;5053187;28;20549;-65
2023/01/12 06:34:08;;;;;;;;;;;8.70;99.90;;;;;;5053900;28;19924;-65
2023/01/12 06:36:35;;;;;;;;;;;8.70;99.90;;;;;;5053929;28;20408;-66
2023/01/12 06:39:05;;;;;;;;;;;8.70;99.90;;;;;;5053399;28;20366;-67
2023/01/12 06:44:19;;;;;;;;;;;8.70;99.90;;;;;;5053680;28;20037;-66
2023/01/12 06:46:47;;;;;;;;;;;8.70;99.90;;;;;;5048118;28;19929;-66
2023/01/12 06:49:15;;;;;;;;;;;8.70;99.90;;;;;;5053102;28;19932;-67
2023/01/12 06:51:43;;;;;;;;;;;8.70;99.90;;;;;;5052702;28;19967;-66
2023/01/12 06:54:12;;;;;;;;;;;8.60;99.90;;;;;;5053624;28;20511;-66
2023/01/12 06:56:40;;;;;;;;;;;8.70;99.90;;;;;;5053500;28;19936;-65
2023/01/12 06:59:11;;;;;;;;;;;8.70;99.90;;;;;;5053199;28;20019;-66
2023/01/12 07:01:38;;;;;;;;;;;8.60;99.90;;;;;;5053053;28;19931;-66
2023/01/12 07:04:07;;;;;;;;;;;8.60;99.90;;;;;;5049672;28;19925;-66
2023/01/12 07:06:34;;;;;;;;;;;8.60;99.90;;;;;;5048710;28;19971;-66
2023/01/12 07:09:02;;;;;;;;;;;8.60;99.90;;;;;;5040941;28;20016;-66
2023/01/12 07:11:31;;;;;;;;;;;8.60;99.90;;;;;;5051711;28;19971;-67
2023/01/12 07:13:59;;;;;;;;;;;8.70;99.90;;;;;;5042737;28;19925;-67
2023/01/12 07:16:27;;;;;;;;;;;8.60;99.90;;;;;;5034166;28;19968;-67
2023/01/12 07:18:54;;;;;;;;;;;8.70;99.90;;;;;;5034031;28;20028;-67
2023/01/12 07:21:22;;;;;;;;;;;8.70;99.90;;;;;;5067257;28;19928;-67
2023/01/12 07:23:50;;;;;;;;;;;8.70;99.90;;;;;;5088822;28;19924;-66
2023/01/12 07:26:17;;;;;;;;;;;8.70;99.90;;;;;;5069068;28;20011;-68
2023/01/12 07:28:46;;;;;;;;;;;8.70;99.90;;;;;;5067604;28;20023;-67
2023/01/12 07:31:14;;;;;;;;;;;8.60;99.90;;;;;;5092841;28;19959;-68
2023/01/12 07:33:42;;;;;;;;;;;8.60;99.90;;;;;;5083871;28;19931;-67
2023/01/12 07:36:09;;;;;;;;;;;8.60;99.90;;;;;;5068729;28;20403;-68
2023/01/12 07:38:37;;;;;;;;;;;8.50;99.90;;;;;;5070653;28;20428;-68
2023/01/12 07:42:21;;;;;;;;;;;8.50;99.90;;;;;;5069475;28;20007;-68
2023/01/12 07:43:54;;;;;;;;;;;8.50;99.90;;;;;;5071274;28;19925;-68
2023/01/12 07:46:22;;;;;;;;;;;8.30;99.90;;;;;;5071770;28;20019;-67
2023/01/12 07:48:49;;;;;;;;;;;8.30;99.90;;;;;;5072311;28;19928;-68
2023/01/12 07:51:17;;;;;;;;;;;8.20;99.90;;;;;;5072116;28;19934;-68
2023/01/12 07:53:46;;;;;;;;;;;8.20;99.90;;;;;;5073091;28;19924;-68
2023/01/12 07:56:15;;;;;;;;;;;8.10;99.90;;;;;;5072899;28;19944;-68
2023/01/12 07:58:43;;;;;;;;;;;8.10;99.90;;;;;;5072922;28;19928;-67
2023/01/12 08:01:12;;;;;;;;;;;8.10;99.90;;;;;;5071730;28;19925;-68
2023/01/12 08:03:40;;;;;;;;;;;8.10;99.90;;;;;;5072849;28;20376;-68
2023/01/12 08:06:07;;;;;;;;;;;8.00;99.90;;;;;;5072700;28;19924;-68
2023/01/12 08:08:35;;;;;;;;;;;8.00;99.90;;;;;;5072542;28;20027;-68
2023/01/12 08:11:03;;;;;;;;;;;8.00;99.90;;;;;;5071953;28;19925;-68
2023/01/12 08:13:30;;;;;;;;;;;8.00;99.90;;;;;;5072537;28;20066;-68
2023/01/12 08:16:03;;;;;;;;;;;8.00;99.90;;;;;;5072755;28;19932;-68
2023/01/12 08:18:33;;;;;;;;;;;8.00;99.90;;;;;;5072649;28;19925;-68
2023/01/12 08:21:05;;;;;;;;;;;8.00;99.90;;;;;;5086603;28;19931;-68
2023/01/12 08:23:35;;;;;;;;;;;8.00;99.90;;;;;;5072337;28;19925;-68
2023/01/12 08:26:06;;;;;;;;;;;8.00;99.90;;;;;;5072916;28;19974;-69
2023/01/12 08:28:42;;;;;;;;;;;8.00;99.90;;;;;;5072352;28;20424;-69
2023/01/12 08:31:12;;;;;;;;;;;8.00;99.90;;;;;;5070701;28;20027;-69
2023/01/12 08:33:42;;;;;;;;;;;8.00;99.90;;;;;;5071844;28;20026;-69
2023/01/12 08:36:10;;;;;;;;;;;8.00;99.90;;;;;;5071943;28;20027;-68
2023/01/12 08:38:39;;;;;;;;;;;8.00;99.90;;;;;;5063573;28;19952;-68
2023/01/12 08:44:06;;;;;;;;;;;8.00;99.90;;;;;;4990393;28;19973;-69
2023/01/12 08:46:36;;;;;;;;;;;8.00;99.90;;;;;;5054411;28;20015;-68
2023/01/12 08:49:07;;;;;;;;;;;8.00;99.90;;;;;;5071772;28;19970;-68
2023/01/12 08:51:35;;;;;;;;;;;8.00;99.90;;;;;;5071356;28;19924;-69
2023/01/12 08:54:03;;;;;;;;;;;8.00;99.90;;;;;;5071906;28;20045;-68
2023/01/12 08:56:31;;;;;;;;;;;8.00;99.90;;;;;;5071734;28;19925;-69
2023/01/12 08:59:00;;;;;;;;;;;8.00;99.90;;;;;;5071726;28;19951;-68
2023/01/12 09:01:27;;;;;;;;;;;8.00;99.90;;;;;;5071083;28;20011;-66
2023/01/12 09:03:55;;;;;;;;;;;8.10;99.90;;;;;;5071822;28;19928;-66
2023/01/12 09:06:25;;;;;;;;;;;8.10;99.90;;;;;;5071284;28;19950;-68
2023/01/12 09:08:53;;;;;;;;;;;8.20;99.90;;;;;;5071531;28;20414;-68
2023/01/12 09:11:21;;;;;;;;;;;8.30;99.90;;;;;;5070941;28;19930;-68
2023/01/12 09:13:49;;;;;;;;;;;8.30;99.90;;;;;;5071768;28;19962;-68
2023/01/12 09:16:18;;;;;;;;;;;8.30;99.90;;;;;;5071367;28;19935;-67
2023/01/12 09:18:45;;;;;;;;;;;8.30;99.90;;;;;;5071815;28;20023;-67
2023/01/12 09:21:14;;;;;;;;;;;8.40;99.90;;;;;;5070560;28;20385;-67
2023/01/12 09:23:44;;;;;;;;;;;8.40;99.90;;;;;;5071495;28;20023;-67
2023/01/12 09:26:12;;;;;;;;;;;8.40;99.90;;;;;;5071421;28;20015;-67
2023/01/12 09:28:41;;;;;;;;;;;8.40;99.90;;;;;;5071333;28;20023;-67
2023/01/12 09:31:10;;;;;;;;;;;8.50;99.90;;;;;;5071091;28;19935;-67
2023/01/12 09:33:39;;;;;;;;;;;8.50;99.90;;;;;;5071577;28;19931;-67
2023/01/12 09:36:08;;;;;;;;;;;8.50;99.90;;;;;;5071236;28;19972;-67
2023/01/12 09:38:36;;;;;;;;;;;8.50;99.90;;;;;;5071266;28;19925;-67
2023/01/12 09:41:10;;;;;;;;;;;8.60;99.90;;;;;;5071181;28;19931;-68
2023/01/12 09:49:12;;;;;;;;;;;8.60;99.90;;;;;;5075254;28;19928;-67
2023/01/12 09:51:43;;;;;;;;;;;8.70;99.90;;;;;;5074411;28;19967;-67
2023/01/12 09:54:11;;;;;;;;;;;8.70;99.90;;;;;;5075414;28;20018;-68
2023/01/12 09:56:41;;;;;;;;;;;8.70;99.90;;;;;;5075076;28;20006;-67
2023/01/12 09:59:20;;;;;;;;;;;8.70;99.90;;;;;;5075238;28;19928;-67
2023/01/12 10:01:51;;;;;;;;;;;8.70;99.90;;;;;;5074542;28;19925;-67
2023/01/12 10:04:19;;;;;;;;;;;8.80;99.90;;;;;;5075376;28;19982;-67
2023/01/12 10:06:46;;;;;;;;;;;8.80;99.90;;;;;;5074617;28;19995;-68
2023/01/12 10:09:16;;;;;;;;;;;8.80;99.90;;;;;;5074827;28;19931;-67
2023/01/12 10:11:47;;;;;;;;;;;8.90;99.90;;;;;;5074051;28;20043;-67
2023/01/12 10:14:25;;;;;;;;;;;8.90;99.90;;;;;;5074834;28;20015;-67
2023/01/12 10:16:58;;;;;;;;;;;8.90;99.90;;;;;;5074645;28;19956;-67
2023/01/12 10:19:30;;;;;;;;;;;8.90;99.90;;;;;;5074530;28;20350;-68
2023/01/12 10:21:57;;;;;;;;;;;8.90;99.90;;;;;;5074402;28;19924;-68
2023/01/12 10:24:26;;;;;;;;;;;8.90;99.90;;;;;;5074666;28;20376;-68
2023/01/12 10:27:00;;;;;;;;;;;8.90;99.90;;;;;;5074325;28;20342;-67
2023/01/12 10:29:28;;;;;;;;;;;9.00;99.90;;;;;;5074452;28;20371;-69
2023/01/12 10:31:56;;;;;;;;;;;9.00;99.90;;;;;;5074342;28;20019;-67
2023/01/12 10:34:23;;;;;;;;;;;9.00;99.90;;;;;;5074575;28;20366;-67
2023/01/12 10:36:57;;;;;;;;;;;9.00;99.90;;;;;;5074151;28;19935;-67
2023/01/12 10:39:27;;;;;;;;;;;9.10;99.90;;;;;;5074074;28;20390;-67
2023/01/12 10:43:17;;;;;;;;;;;9.10;99.90;;;;;;5074079;28;20296;-67
2023/01/12 10:45:15;;;;;;;;;;;9.10;99.90;;;;;;5074270;28;19924;-68
2023/01/12 10:47:43;;;;;;;;;;;9.00;99.90;;;;;;5074265;28;19930;-67
2023/01/12 10:50:18;;;;;;;;;;;9.00;99.90;;;;;;5073326;28;20023;-68
2023/01/12 10:52:46;;;;;;;;;;;9.00;99.90;;;;;;5074054;28;19932;-67
2023/01/12 10:55:17;;;;;;;;;;;9.00;99.90;;;;;;5073069;28;19928;-68
2023/01/12 10:57:46;;;;;;;;;;;8.90;99.90;;;;;;5074176;28;19964;-68
2023/01/12 11:00:19;;;;;;;;;;;8.90;99.90;;;;;;5073028;28;19925;-68
2023/01/12 11:02:47;;;;;;;;;;;8.80;99.90;;;;;;5073980;28;19967;-67
2023/01/12 11:05:29;;;;;;;;;;;8.90;99.90;;;;;;5073861;28;20377;-67
2023/01/12 11:07:57;;;;;;;;;;;8.80;99.90;;;;;;5066263;28;20329;-68
2023/01/12 11:10:28;;;;;;;;;;;8.80;99.90;;;;;;5072745;28;20020;-67
2023/01/12 11:12:58;;;;;;;;;;;8.80;99.90;;;;;;5059360;28;19978;-68
2023/01/12 11:15:27;;;;;;;;;;;8.80;99.90;;;;;;5053928;28;19931;-67
2023/01/12 11:18:03;;;;;;;;;;;8.80;99.90;;;;;;5053619;28;19967;-68
2023/01/12 11:20:34;;;;;;;;;;;8.80;99.90;;;;;;5052547;28;20377;-67
2023/01/12 11:23:03;;;;;;;;;;;8.80;99.90;;;;;;5053460;28;19925;-67
2023/01/12 11:25:33;;;;;;;;;;;8.80;99.90;;;;;;5053637;28;20020;-67
2023/01/12 11:28:06;;;;;;;;;;;8.80;99.90;;;;;;5053351;28;19924;-67
2023/01/12 11:30:36;;;;;;;;;;;8.90;99.90;;;;;;5053018;28;19947;-68
2023/01/12 11:33:08;;;;;;;;;;;8.90;99.90;;;;;;5053563;28;19994;-67
2023/01/12 11:35:38;;;;;;;;;;;8.90;99.90;;;;;;5055613;28;20453;-68
2023/01/12 11:38:11;;;;;;;;;;;8.90;99.90;;;;;;5072834;28;20020;-68
2023/01/12 11:40:39;;;;;;;;;;;8.90;99.90;;;;;;5052632;28;19931;-67
2023/01/12 11:46:04;;;;;;;;;;;9.00;99.90;;;;;;5053147;28;20465;-67
2023/01/12 11:48:34;;;;;;;;;;;9.00;99.90;;;;;;5052817;28;19948;-68
2023/01/12 11:51:02;;;;;;;;;;;9.00;99.90;;;;;;5052403;28;19975;-67
2023/01/12 11:53:30;;;;;;;;;;;9.10;99.90;;;;;;5052914;28;19928;-67
2023/01/12 11:56:06;;;;;;;;;;;9.10;99.90;;;;;;5053040;28;20023;-67
2023/01/12 11:58:38;;;;;;;;;;;9.10;99.90;;;;;;5052525;28;19931;-67
2023/01/12 12:01:10;;;;;;;;;;;9.10;99.90;;;;;;5052178;28;20404;-67
2023/01/12 12:03:45;;;;;;;;;;;9.10;99.90;;;;;;5052923;28;19931;-67
2023/01/12 12:06:28;;;;;;;;;;;9.10;99.90;;;;;;5059749;28;19978;-67
2023/01/12 12:09:03;;;;;;;;;;;9.10;99.90;;;;;;5072084;28;20467;-67
2023/01/12 12:11:35;;;;;;;;;;;9.10;99.90;;;;;;5072121;28;20593;-67
2023/01/12 12:14:12;;;;;;;;;;;9.10;99.90;;;;;;5072055;28;22562;-67
2023/01/12 12:16:45;;;;;;;;;;;9.10;99.90;;;;;;5072476;28;20055;-68
2023/01/12 12:19:22;;;;;;;;;;;9.10;99.90;;;;;;5097837;22;20371;-61
2023/01/12 12:21:50;;;;;;;;;;;9.00;99.90;;;;;;5049977;28;20020;-63
2023/01/12 12:24:23;;;;;;;;;;;8.90;99.90;;;;;;5052254;28;19929;-63
2023/01/12 12:26:53;;;;;;;;;;;8.90;99.90;;;;;;5052017;28;19939;-63
2023/01/12 12:29:28;;;;;;;;;;;8.90;99.90;;;;;;5052133;28;20418;-62
2023/01/12 12:32:00;;;;;;;;;;;8.90;99.90;;;;;;5051755;28;20028;-62
2023/01/12 12:34:53;;;;;;;;;;;8.90;99.90;;;;;;5052202;28;19931;-62
2023/01/12 12:37:22;;;;;;;;;;;8.90;99.90;;;;;;4996024;28;19957;-63
2023/01/12 12:39:55;;;;;;;;;;;8.90;99.90;;;;;;5051307;28;19939;-62
2023/01/12 12:45:20;;;;;;;;;;;8.90;99.90;;;;;;5051943;28;19924;-62
2023/01/12 12:47:56;;;;;;;;;;;8.90;99.90;;;;;;5051821;28;20373;-62
2023/01/12 12:50:27;;;;;;;;;;;8.90;99.90;;;;;;5050992;28;19929;-63
2023/01/12 12:53:03;;;;;;;;;;;8.90;99.90;;;;;;5051749;28;19986;-62
2023/01/12 12:55:31;;;;;;;;;;;9.00;99.90;;;;;;5051909;28;19951;-63
2023/01/12 12:58:00;;;;;;;;;;;9.00;99.90;;;;;;5051455;28;20420;-63
2023/01/12 13:00:30;;;;;;;;;;;9.00;99.90;;;;;;5051104;28;19925;-63
2023/01/12 13:02:58;;;;;;;;;;;9.10;99.90;;;;;;5051816;28;19925;-63
2023/01/12 13:05:40;;;;;;;;;;;9.10;99.90;;;;;;5051711;28;20303;-63
2023/01/12 13:08:16;;;;;;;;;;;9.10;99.90;;;;;;5051306;28;20464;-63
2023/01/12 13:10:48;;;;;;;;;;;9.10;99.90;;;;;;5031181;28;20028;-63
2023/01/12 13:13:29;;;;;;;;;;;9.10;99.90;;;;;;5031904;28;20417;-63
2023/01/12 13:16:18;;;;;;;;;;;9.20;99.90;;;;;;5031790;28;19925;-63
2023/01/12 13:19:01;;;;;;;;;;;9.10;99.90;;;;;;5029213;28;20008;-63
2023/01/12 13:21:31;;;;;;;;;;;9.10;99.90;;;;;;5049451;28;20350;-63
2023/01/12 13:24:25;;;;;;;;;;;9.20;99.90;;;;;;5051315;28;19975;-62
2023/01/12 13:26:56;;;;;;;;;;;9.20;99.90;;;;;;5026902;28;20323;-63
2023/01/12 13:29:40;;;;;;;;;;;9.20;99.90;;;;;;5051203;28;19931;-63
2023/01/12 13:32:27;;;;;;;;;;;9.20;99.90;;;;;;5051391;28;19932;-63
2023/01/12 13:34:55;;;;;;;;;;;9.30;99.90;;;;;;5051503;28;20432;-63
2023/01/12 13:37:30;;;;;;;;;;;9.30;99.90;;;;;;5068139;28;19925;-62
2023/01/12 13:40:03;;;;;;;;;;;9.30;99.90;;;;;;5070549;28;19928;-62
2023/01/12 13:45:18;;;;;;;;;;;9.40;99.90;;;;;;5071407;28;20321;-63
2023/01/12 13:47:47;;;;;;;;;;;9.40;99.90;;;;;;5071054;28;20548;-63
2023/01/12 13:50:16;;;;;;;;;;;9.40;99.90;;;;;;5070437;28;19931;-63
2023/01/12 13:52:55;;;;;;;;;;;9.40;99.90;;;;;;5071079;28;19928;-63
2023/01/12 13:55:26;;;;;;;;;;;9.50;99.90;;;;;;5071300;28;20012;-63
2023/01/12 13:57:58;;;;;;;;;;;9.40;99.90;;;;;;5071473;28;19924;-63
2023/01/12 14:00:27;;;;;;;;;;;9.50;99.90;;;;;;5070582;28;19930;-63
2023/01/12 14:02:55;;;;;;;;;;;9.50;99.90;;;;;;5071028;28;19926;-62
2023/01/12 14:05:38;;;;;;;;;;;9.40;99.90;;;;;;5070932;28;20023;-62
2023/01/12 14:08:14;;;;;;;;;;;9.50;99.90;;;;;;5058024;28;20385;-64
2023/01/12 14:10:46;;;;;;;;;;;9.50;99.90;;;;;;5050150;28;20381;-62
2023/01/12 14:13:31;;;;;;;;;;;9.50;99.90;;;;;;5050820;28;19924;-63
2023/01/12 14:18:47;;;;;;;;;;;9.50;99.90;;;;;;5051199;28;19925;-63
2023/01/12 14:21:23;;;;;;;;;;;9.50;99.90;;;;;;5049913;28;20011;-63
2023/01/12 14:23:52;;;;;;;;;;;9.50;99.90;;;;;;5050803;28;19968;-63
2023/01/12 14:26:22;;;;;;;;;;;9.50;99.90;;;;;;5050601;28;19925;-62
2023/01/12 14:28:51;;;;;;;;;;;9.60;99.90;;;;;;5051907;28;20016;-62
2023/01/12 14:31:21;;;;;;;;;;;9.60;99.90;;;;;;5053676;28;19931;-62
2023/01/12 14:33:50;;;;;;;;;;;9.60;99.90;;;;;;5054255;28;20031;-62
2023/01/12 14:36:21;;;;;;;;;;;9.60;99.90;;;;;;5062469;28;20350;-62
2023/01/12 14:38:49;;;;;;;;;;;9.60;99.90;;;;;;5074272;28;20307;-62
2023/01/12 14:46:51;;;;;;;;;;;9.70;99.90;;;;;;5074441;28;19925;-62
2023/01/12 14:49:20;;;;;;;;;;;9.70;99.90;;;;;;5073878;28;19935;-63
2023/01/12 14:51:52;;;;;;;;;;;9.70;99.90;;;;;;5073633;28;19970;-62
2023/01/12 14:54:24;;;;;;;;;;;9.70;99.90;;;;;;5074303;28;19931;-62
2023/01/12 14:56:55;;;;;;;;;;;9.70;99.90;;;;;;5074074;28;19935;-62
2023/01/12 14:59:24;;;;;;;;;;;9.70;99.90;;;;;;5074089;28;19970;-63
2023/01/12 15:01:52;;;;;;;;;;;9.70;99.90;;;;;;5073131;28;19928;-63
2023/01/12 15:04:21;;;;;;;;;;;9.70;99.90;;;;;;5074313;28;19931;-62
2023/01/12 15:06:59;;;;;;;;;;;9.80;99.90;;;;;;5073817;28;20031;-63
2023/01/12 15:09:28;;;;;;;;;;;9.80;99.90;;;;;;5073459;28;19960;-63
2023/01/12 15:11:57;;;;;;;;;;;9.80;99.90;;;;;;5073448;28;19924;-63
2023/01/12 15:14:27;;;;;;;;;;;9.80;99.90;;;;;;5073508;28;20401;-62
2023/01/12 15:27:59;;;;;;;;;;;9.70;99.90;;;;;;5073555;28;19930;-63
2023/01/12 15:30:27;;;;;;;;;;;9.70;99.90;;;;;;5072649;28;19924;-64
2023/01/12 15:32:55;;;;;;;;;;;9.70;99.90;;;;;;5073450;28;19924;-63
2023/01/12 15:35:23;;;;;;;;;;;9.70;99.90;;;;;;5073209;28;20018;-63
2023/01/12 15:37:52;;;;;;;;;;;9.70;99.90;;;;;;5072923;28;20488;-63
2023/01/12 15:40:20;;;;;;;;;;;9.70;99.90;;;;;;5071757;28;20368;-62
2023/01/12 15:42:49;;;;;;;;;;;9.70;99.90;;;;;;5073224;28;19930;-63
2023/01/12 15:45:28;;;;;;;;;;;9.70;99.90;;;;;;5073199;28;20339;-63
2023/01/12 15:47:56;;;;;;;;;;;9.70;99.90;;;;;;5073039;28;19928;-62
2023/01/12 15:50:24;;;;;;;;;;;9.70;99.90;;;;;;5072346;28;19935;-63
2023/01/12 15:52:52;;;;;;;;;;;9.70;99.90;;;;;;5072771;28;20316;-62